sensor_id;sensor_type;location;lat;lon;timestamp;P1;durP1;ratioP1;P2;durP2;ratioP2
55330;SDS011;58851;42.984;20.336;2023-04-03T00:01:35;45.65;;;25.25;;
55330;SDS011;58851;42.984;20.336;2023-04-03T00:04:03;45.03;;;24.70;;
55330;SDS011;58851;42.984;20.336;2023-04-03T00:06:30;49.67;;;26.63;;
55330;SDS011;58851;42.984;20.336;2023-04-03T00:08:56;50.65;;;30.90;;
55330;SDS011;58851;42.984;20.336;2023-04-03T00:11:22;46.53;;;30.67;;
55330;SDS011;58851;42.984;20.336;2023-04-03T00:13:48;55.80;;;34.25;;
55330;SDS011;58851;42.984;20.336;2023-04-03T00:16:14;56.53;;;32.88;;
55330;SDS011;58851;42.984;20.336;2023-04-03T00:18:40;52.30;;;31.77;;
55330;SDS011;58851;42.984;20.336;2023-04-03T00:21:07;161.80;;;94.10;;
55330;SDS011;58851;42.984;20.336;2023-04-03T00:23:34;106.72;;;55.67;;
55330;SDS011;58851;42.984;20.336;2023-04-03T00:26:00;64.18;;;38.55;;
55330;SDS011;58851;42.984;20.336;2023-04-03T00:28:26;121.35;;;69.22;;
55330;SDS011;58851;42.984;20.336;2023-04-03T00:30:52;78.03;;;46.67;;
55330;SDS011;58851;42.984;20.336;2023-04-03T00:33:18;64.30;;;40.47;;
55330;SDS011;58851;42.984;20.336;2023-04-03T00:35:46;42.15;;;24.67;;
55330;SDS011;58851;42.984;20.336;2023-04-03T00:38:13;41.50;;;25.65;;
55330;SDS011;58851;42.984;20.336;2023-04-03T00:40:41;45.42;;;28.83;;
55330;SDS011;58851;42.984;20.336;2023-04-03T00:43:13;53.78;;;27.83;;
55330;SDS011;58851;42.984;20.336;2023-04-03T00:45:51;52.55;;;27.98;;
55330;SDS011;58851;42.984;20.336;2023-04-03T00:48:23;44.38;;;27.65;;
55330;SDS011;58851;42.984;20.336;2023-04-03T00:50:50;47.17;;;28.85;;
55330;SDS011;58851;42.984;20.336;2023-04-03T00:53:18;45.38;;;29.85;;
55330;SDS011;58851;42.984;20.336;2023-04-03T00:55:53;50.72;;;30.25;;
55330;SDS011;58851;42.984;20.336;2023-04-03T00:58:20;74.28;;;46.10;;
55330;SDS011;58851;42.984;20.336;2023-04-03T01:00:54;63.95;;;38.45;;
55330;SDS011;58851;42.984;20.336;2023-04-03T01:03:23;43.22;;;27.63;;
55330;SDS011;58851;42.984;20.336;2023-04-03T01:05:50;50.55;;;30.15;;
55330;SDS011;58851;42.984;20.336;2023-04-03T01:08:16;76.88;;;45.90;;
55330;SDS011;58851;42.984;20.336;2023-04-03T01:10:42;96.22;;;55.25;;
55330;SDS011;58851;42.984;20.336;2023-04-03T01:13:19;88.57;;;50.38;;
55330;SDS011;58851;42.984;20.336;2023-04-03T01:15:55;46.58;;;29.20;;
55330;SDS011;58851;42.984;20.336;2023-04-03T01:18:22;49.50;;;30.88;;
55330;SDS011;58851;42.984;20.336;2023-04-03T01:23:22;33.85;;;19.27;;
55330;SDS011;58851;42.984;20.336;2023-04-03T01:25:55;20.63;;;13.82;;
55330;SDS011;58851;42.984;20.336;2023-04-03T01:28:23;21.65;;;15.35;;
55330;SDS011;58851;42.984;20.336;2023-04-03T01:31:04;31.17;;;19.48;;
55330;SDS011;58851;42.984;20.336;2023-04-03T01:33:33;48.08;;;28.35;;
55330;SDS011;58851;42.984;20.336;2023-04-03T01:36:00;50.38;;;30.10;;
55330;SDS011;58851;42.984;20.336;2023-04-03T01:38:26;60.42;;;35.38;;
55330;SDS011;58851;42.984;20.336;2023-04-03T01:40:52;60.78;;;35.78;;
55330;SDS011;58851;42.984;20.336;2023-04-03T01:43:18;49.03;;;26.98;;
55330;SDS011;58851;42.984;20.336;2023-04-03T01:45:43;39.15;;;25.35;;
55330;SDS011;58851;42.984;20.336;2023-04-03T01:48:11;45.72;;;27.10;;
55330;SDS011;58851;42.984;20.336;2023-04-03T01:50:38;45.53;;;29.27;;
55330;SDS011;58851;42.984;20.336;2023-04-03T01:53:04;50.17;;;32.40;;
55330;SDS011;58851;42.984;20.336;2023-04-03T01:55:30;60.65;;;38.60;;
55330;SDS011;58851;42.984;20.336;2023-04-03T01:57:55;68.70;;;39.85;;
55330;SDS011;58851;42.984;20.336;2023-04-03T02:00:21;62.08;;;40.03;;
55330;SDS011;58851;42.984;20.336;2023-04-03T02:02:47;54.67;;;35.05;;
55330;SDS011;58851;42.984;20.336;2023-04-03T02:05:12;56.05;;;33.97;;
55330;SDS011;58851;42.984;20.336;2023-04-03T02:07:38;55.60;;;36.80;;
55330;SDS011;58851;42.984;20.336;2023-04-03T02:10:04;59.35;;;39.55;;
55330;SDS011;58851;42.984;20.336;2023-04-03T02:12:30;50.65;;;31.00;;
55330;SDS011;58851;42.984;20.336;2023-04-03T02:14:56;43.35;;;27.40;;
55330;SDS011;58851;42.984;20.336;2023-04-03T02:17:22;45.63;;;26.38;;
55330;SDS011;58851;42.984;20.336;2023-04-03T02:19:47;66.65;;;37.60;;
55330;SDS011;58851;42.984;20.336;2023-04-03T02:22:13;90.70;;;44.10;;
55330;SDS011;58851;42.984;20.336;2023-04-03T02:24:39;71.85;;;35.20;;
55330;SDS011;58851;42.984;20.336;2023-04-03T02:27:05;45.92;;;27.42;;
55330;SDS011;58851;42.984;20.336;2023-04-03T02:29:31;35.60;;;24.23;;
55330;SDS011;58851;42.984;20.336;2023-04-03T02:31:57;32.67;;;21.52;;
55330;SDS011;58851;42.984;20.336;2023-04-03T02:34:22;37.85;;;25.08;;
55330;SDS011;58851;42.984;20.336;2023-04-03T02:36:48;48.38;;;28.75;;
55330;SDS011;58851;42.984;20.336;2023-04-03T02:39:14;44.00;;;27.77;;
55330;SDS011;58851;42.984;20.336;2023-04-03T02:41:40;40.13;;;27.77;;
55330;SDS011;58851;42.984;20.336;2023-04-03T02:44:07;38.72;;;29.38;;
55330;SDS011;58851;42.984;20.336;2023-04-03T02:46:37;83.30;;;38.72;;
55330;SDS011;58851;42.984;20.336;2023-04-03T02:49:03;48.10;;;30.23;;
55330;SDS011;58851;42.984;20.336;2023-04-03T02:51:29;46.88;;;28.70;;
55330;SDS011;58851;42.984;20.336;2023-04-03T02:53:55;45.17;;;28.20;;
55330;SDS011;58851;42.984;20.336;2023-04-03T02:56:21;38.38;;;26.73;;
55330;SDS011;58851;42.984;20.336;2023-04-03T02:58:46;40.50;;;27.10;;
55330;SDS011;58851;42.984;20.336;2023-04-03T03:01:13;43.17;;;28.65;;
55330;SDS011;58851;42.984;20.336;2023-04-03T03:03:39;43.92;;;29.63;;
55330;SDS011;58851;42.984;20.336;2023-04-03T03:06:09;60.28;;;33.22;;
55330;SDS011;58851;42.984;20.336;2023-04-03T03:08:37;65.68;;;36.22;;
55330;SDS011;58851;42.984;20.336;2023-04-03T03:11:03;55.90;;;34.85;;
55330;SDS011;58851;42.984;20.336;2023-04-03T03:13:30;49.33;;;28.83;;
55330;SDS011;58851;42.984;20.336;2023-04-03T03:15:56;59.30;;;31.80;;
55330;SDS011;58851;42.984;20.336;2023-04-03T03:18:22;73.88;;;41.70;;
55330;SDS011;58851;42.984;20.336;2023-04-03T03:20:51;59.28;;;36.97;;
55330;SDS011;58851;42.984;20.336;2023-04-03T03:23:21;50.45;;;33.67;;
55330;SDS011;58851;42.984;20.336;2023-04-03T03:25:48;48.60;;;30.38;;
55330;SDS011;58851;42.984;20.336;2023-04-03T03:28:14;45.70;;;31.98;;
55330;SDS011;58851;42.984;20.336;2023-04-03T03:30:40;54.28;;;32.80;;
55330;SDS011;58851;42.984;20.336;2023-04-03T03:33:06;61.85;;;35.80;;
55330;SDS011;58851;42.984;20.336;2023-04-03T03:35:32;49.13;;;32.35;;
55330;SDS011;58851;42.984;20.336;2023-04-03T03:37:58;56.38;;;35.55;;
55330;SDS011;58851;42.984;20.336;2023-04-03T03:40:23;49.60;;;32.13;;
55330;SDS011;58851;42.984;20.336;2023-04-03T03:42:50;50.45;;;34.05;;
55330;SDS011;58851;42.984;20.336;2023-04-03T03:45:15;59.45;;;37.75;;
55330;SDS011;58851;42.984;20.336;2023-04-03T03:47:41;64.88;;;41.05;;
55330;SDS011;58851;42.984;20.336;2023-04-03T03:50:07;68.95;;;45.03;;
55330;SDS011;58851;42.984;20.336;2023-04-03T03:52:33;74.50;;;44.72;;
55330;SDS011;58851;42.984;20.336;2023-04-03T03:54:59;71.75;;;45.90;;
55330;SDS011;58851;42.984;20.336;2023-04-03T03:57:25;73.00;;;44.30;;
55330;SDS011;58851;42.984;20.336;2023-04-03T03:59:53;83.03;;;46.95;;
55330;SDS011;58851;42.984;20.336;2023-04-03T04:02:19;83.68;;;48.15;;
55330;SDS011;58851;42.984;20.336;2023-04-03T04:04:45;66.20;;;41.13;;
55330;SDS011;58851;42.984;20.336;2023-04-03T04:07:12;69.43;;;41.53;;
55330;SDS011;58851;42.984;20.336;2023-04-03T04:09:37;78.10;;;46.20;;
55330;SDS011;58851;42.984;20.336;2023-04-03T04:12:03;65.70;;;40.45;;
55330;SDS011;58851;42.984;20.336;2023-04-03T04:14:29;54.17;;;32.08;;
55330;SDS011;58851;42.984;20.336;2023-04-03T04:16:55;48.58;;;29.30;;
55330;SDS011;58851;42.984;20.336;2023-04-03T04:19:20;47.08;;;31.77;;
55330;SDS011;58851;42.984;20.336;2023-04-03T04:21:46;47.80;;;29.42;;
55330;SDS011;58851;42.984;20.336;2023-04-03T04:24:12;49.58;;;30.25;;
55330;SDS011;58851;42.984;20.336;2023-04-03T04:26:38;42.08;;;29.02;;
55330;SDS011;58851;42.984;20.336;2023-04-03T04:29:04;44.00;;;31.95;;
55330;SDS011;58851;42.984;20.336;2023-04-03T04:31:29;75.45;;;45.85;;
55330;SDS011;58851;42.984;20.336;2023-04-03T04:33:55;91.38;;;57.00;;
55330;SDS011;58851;42.984;20.336;2023-04-03T04:36:21;183.52;;;100.80;;
55330;SDS011;58851;42.984;20.336;2023-04-03T04:38:47;152.00;;;84.68;;
55330;SDS011;58851;42.984;20.336;2023-04-03T04:41:12;249.10;;;128.63;;
55330;SDS011;58851;42.984;20.336;2023-04-03T04:43:38;194.95;;;99.60;;
55330;SDS011;58851;42.984;20.336;2023-04-03T04:46:05;122.68;;;67.10;;
55330;SDS011;58851;42.984;20.336;2023-04-03T04:48:32;112.88;;;63.03;;
55330;SDS011;58851;42.984;20.336;2023-04-03T04:50:59;97.63;;;57.95;;
55330;SDS011;58851;42.984;20.336;2023-04-03T04:53:25;102.68;;;59.38;;
55330;SDS011;58851;42.984;20.336;2023-04-03T04:55:51;107.72;;;61.38;;
55330;SDS011;58851;42.984;20.336;2023-04-03T04:58:18;81.03;;;48.08;;
55330;SDS011;58851;42.984;20.336;2023-04-03T05:00:46;84.53;;;48.00;;
55330;SDS011;58851;42.984;20.336;2023-04-03T05:03:12;83.75;;;50.13;;
55330;SDS011;58851;42.984;20.336;2023-04-03T05:05:38;61.25;;;37.85;;
55330;SDS011;58851;42.984;20.336;2023-04-03T05:08:04;62.45;;;37.47;;
55330;SDS011;58851;42.984;20.336;2023-04-03T05:10:30;71.90;;;45.90;;
55330;SDS011;58851;42.984;20.336;2023-04-03T05:12:56;70.38;;;43.97;;
55330;SDS011;58851;42.984;20.336;2023-04-03T05:15:23;68.10;;;41.67;;
55330;SDS011;58851;42.984;20.336;2023-04-03T05:17:48;77.18;;;47.63;;
55330;SDS011;58851;42.984;20.336;2023-04-03T05:20:15;86.97;;;53.60;;
55330;SDS011;58851;42.984;20.336;2023-04-03T05:22:41;87.75;;;55.53;;
55330;SDS011;58851;42.984;20.336;2023-04-03T05:25:07;74.47;;;50.47;;
55330;SDS011;58851;42.984;20.336;2023-04-03T05:27:33;76.22;;;53.83;;
55330;SDS011;58851;42.984;20.336;2023-04-03T05:29:59;73.15;;;45.72;;
55330;SDS011;58851;42.984;20.336;2023-04-03T05:32:25;67.70;;;43.65;;
55330;SDS011;58851;42.984;20.336;2023-04-03T05:34:52;65.00;;;41.53;;
55330;SDS011;58851;42.984;20.336;2023-04-03T05:37:18;64.10;;;40.13;;
55330;SDS011;58851;42.984;20.336;2023-04-03T05:39:44;63.17;;;39.08;;
55330;SDS011;58851;42.984;20.336;2023-04-03T05:42:10;58.17;;;36.60;;
55330;SDS011;58851;42.984;20.336;2023-04-03T05:44:36;55.58;;;35.92;;
55330;SDS011;58851;42.984;20.336;2023-04-03T05:47:03;44.13;;;32.30;;
55330;SDS011;58851;42.984;20.336;2023-04-03T05:49:29;57.80;;;37.35;;
55330;SDS011;58851;42.984;20.336;2023-04-03T05:51:54;58.17;;;33.90;;
55330;SDS011;58851;42.984;20.336;2023-04-03T05:54:21;55.17;;;36.97;;
55330;SDS011;58851;42.984;20.336;2023-04-03T05:56:52;49.30;;;29.85;;
55330;SDS011;58851;42.984;20.336;2023-04-03T05:59:19;45.28;;;29.20;;
55330;SDS011;58851;42.984;20.336;2023-04-03T06:01:45;39.25;;;25.08;;
55330;SDS011;58851;42.984;20.336;2023-04-03T06:04:12;32.42;;;22.58;;
55330;SDS011;58851;42.984;20.336;2023-04-03T06:06:45;36.85;;;24.33;;
55330;SDS011;58851;42.984;20.336;2023-04-03T06:09:13;35.53;;;25.40;;
55330;SDS011;58851;42.984;20.336;2023-04-03T06:11:40;40.88;;;26.60;;
55330;SDS011;58851;42.984;20.336;2023-04-03T06:14:06;35.33;;;24.63;;
55330;SDS011;58851;42.984;20.336;2023-04-03T06:16:33;24.48;;;17.92;;
55330;SDS011;58851;42.984;20.336;2023-04-03T06:18:59;25.90;;;19.70;;
55330;SDS011;58851;42.984;20.336;2023-04-03T06:21:25;23.60;;;18.88;;
55330;SDS011;58851;42.984;20.336;2023-04-03T06:23:51;21.67;;;15.07;;
55330;SDS011;58851;42.984;20.336;2023-04-03T06:26:17;18.40;;;13.98;;
55330;SDS011;58851;42.984;20.336;2023-04-03T06:28:42;15.18;;;12.50;;
55330;SDS011;58851;42.984;20.336;2023-04-03T06:31:08;14.32;;;11.85;;
55330;SDS011;58851;42.984;20.336;2023-04-03T06:33:34;19.30;;;15.25;;
55330;SDS011;58851;42.984;20.336;2023-04-03T06:36:02;21.65;;;14.80;;
55330;SDS011;58851;42.984;20.336;2023-04-03T06:38:29;17.35;;;12.75;;
55330;SDS011;58851;42.984;20.336;2023-04-03T06:40:57;15.70;;;13.18;;
55330;SDS011;58851;42.984;20.336;2023-04-03T06:43:23;16.40;;;12.48;;
55330;SDS011;58851;42.984;20.336;2023-04-03T06:45:49;16.80;;;11.88;;
55330;SDS011;58851;42.984;20.336;2023-04-03T06:48:15;22.20;;;16.45;;
55330;SDS011;58851;42.984;20.336;2023-04-03T06:50:41;16.88;;;13.60;;
55330;SDS011;58851;42.984;20.336;2023-04-03T06:53:07;15.95;;;11.88;;
55330;SDS011;58851;42.984;20.336;2023-04-03T06:55:33;16.95;;;14.00;;
55330;SDS011;58851;42.984;20.336;2023-04-03T06:57:59;17.98;;;13.50;;
55330;SDS011;58851;42.984;20.336;2023-04-03T07:00:25;19.02;;;13.70;;
55330;SDS011;58851;42.984;20.336;2023-04-03T07:02:51;19.98;;;16.00;;
55330;SDS011;58851;42.984;20.336;2023-04-03T07:05:17;19.33;;;14.63;;
55330;SDS011;58851;42.984;20.336;2023-04-03T07:07:43;16.67;;;13.60;;
55330;SDS011;58851;42.984;20.336;2023-04-03T07:10:09;16.63;;;13.63;;
55330;SDS011;58851;42.984;20.336;2023-04-03T07:12:36;17.20;;;13.85;;
55330;SDS011;58851;42.984;20.336;2023-04-03T07:15:03;16.65;;;12.88;;
55330;SDS011;58851;42.984;20.336;2023-04-03T07:17:30;17.95;;;14.45;;
55330;SDS011;58851;42.984;20.336;2023-04-03T07:19:56;18.65;;;14.73;;
55330;SDS011;58851;42.984;20.336;2023-04-03T07:22:22;20.30;;;15.35;;
55330;SDS011;58851;42.984;20.336;2023-04-03T07:24:47;19.27;;;15.07;;
55330;SDS011;58851;42.984;20.336;2023-04-03T07:27:13;18.98;;;14.02;;
55330;SDS011;58851;42.984;20.336;2023-04-03T07:29:39;19.75;;;14.20;;
55330;SDS011;58851;42.984;20.336;2023-04-03T07:32:05;20.42;;;14.98;;
55330;SDS011;58851;42.984;20.336;2023-04-03T07:34:32;19.75;;;15.63;;
55330;SDS011;58851;42.984;20.336;2023-04-03T07:36:58;17.92;;;14.73;;
55330;SDS011;58851;42.984;20.336;2023-04-03T07:39:24;17.65;;;13.75;;
55330;SDS011;58851;42.984;20.336;2023-04-03T07:41:50;21.23;;;16.52;;
55330;SDS011;58851;42.984;20.336;2023-04-03T07:44:16;26.17;;;17.67;;
55330;SDS011;58851;42.984;20.336;2023-04-03T07:46:42;18.73;;;16.13;;
55330;SDS011;58851;42.984;20.336;2023-04-03T07:49:08;19.63;;;14.70;;
55330;SDS011;58851;42.984;20.336;2023-04-03T07:51:34;21.85;;;16.63;;
55330;SDS011;58851;42.984;20.336;2023-04-03T07:54:00;25.35;;;19.27;;
55330;SDS011;58851;42.984;20.336;2023-04-03T07:56:26;29.95;;;24.02;;
55330;SDS011;58851;42.984;20.336;2023-04-03T07:58:51;34.05;;;23.73;;
55330;SDS011;58851;42.984;20.336;2023-04-03T08:01:18;21.80;;;17.15;;
55330;SDS011;58851;42.984;20.336;2023-04-03T08:03:44;22.23;;;18.00;;
55330;SDS011;58851;42.984;20.336;2023-04-03T08:06:10;25.63;;;19.33;;
55330;SDS011;58851;42.984;20.336;2023-04-03T08:08:35;28.05;;;21.83;;
55330;SDS011;58851;42.984;20.336;2023-04-03T08:11:01;22.13;;;17.63;;
55330;SDS011;58851;42.984;20.336;2023-04-03T08:13:28;29.27;;;20.02;;
55330;SDS011;58851;42.984;20.336;2023-04-03T08:15:55;24.05;;;18.63;;
55330;SDS011;58851;42.984;20.336;2023-04-03T08:18:22;24.95;;;17.98;;
55330;SDS011;58851;42.984;20.336;2023-04-03T08:20:49;24.02;;;17.45;;
55330;SDS011;58851;42.984;20.336;2023-04-03T08:23:16;20.77;;;16.08;;
55330;SDS011;58851;42.984;20.336;2023-04-03T08:25:43;20.10;;;16.52;;
55330;SDS011;58851;42.984;20.336;2023-04-03T08:28:10;23.92;;;19.13;;
55330;SDS011;58851;42.984;20.336;2023-04-03T08:30:39;24.98;;;16.73;;
55330;SDS011;58851;42.984;20.336;2023-04-03T08:33:06;19.13;;;14.18;;
55330;SDS011;58851;42.984;20.336;2023-04-03T08:35:32;17.60;;;13.40;;
55330;SDS011;58851;42.984;20.336;2023-04-03T08:37:58;16.00;;;13.25;;
55330;SDS011;58851;42.984;20.336;2023-04-03T08:40:23;16.95;;;11.93;;
55330;SDS011;58851;42.984;20.336;2023-04-03T08:51:03;25.02;;;18.45;;
55330;SDS011;58851;42.984;20.336;2023-04-03T08:53:37;22.58;;;15.07;;
55330;SDS011;58851;42.984;20.336;2023-04-03T08:56:09;19.67;;;13.73;;
55330;SDS011;58851;42.984;20.336;2023-04-03T08:58:45;19.50;;;15.30;;
55330;SDS011;58851;42.984;20.336;2023-04-03T09:01:26;18.98;;;13.85;;
55330;SDS011;58851;42.984;20.336;2023-04-03T09:03:59;13.05;;;9.25;;
55330;SDS011;58851;42.984;20.336;2023-04-03T09:06:27;10.77;;;8.55;;
55330;SDS011;58851;42.984;20.336;2023-04-03T09:22:31;14.77;;;10.48;;
55330;SDS011;58851;42.984;20.336;2023-04-03T09:25:02;13.25;;;9.68;;
55330;SDS011;58851;42.984;20.336;2023-04-03T09:27:40;13.77;;;8.32;;
55330;SDS011;58851;42.984;20.336;2023-04-03T09:30:11;13.32;;;10.05;;
55330;SDS011;58851;42.984;20.336;2023-04-03T09:32:43;9.93;;;7.15;;
55330;SDS011;58851;42.984;20.336;2023-04-03T09:35:22;10.27;;;8.18;;
55330;SDS011;58851;42.984;20.336;2023-04-03T09:38:17;8.02;;;5.50;;
55330;SDS011;58851;42.984;20.336;2023-04-03T09:41:03;9.27;;;6.43;;
55330;SDS011;58851;42.984;20.336;2023-04-03T09:43:32;8.57;;;6.03;;
55330;SDS011;58851;42.984;20.336;2023-04-03T09:49:01;10.77;;;7.10;;
55330;SDS011;58851;42.984;20.336;2023-04-03T09:51:29;8.43;;;6.07;;
55330;SDS011;58851;42.984;20.336;2023-04-03T09:53:56;9.57;;;6.50;;
55330;SDS011;58851;42.984;20.336;2023-04-03T09:56:29;10.05;;;6.38;;
55330;SDS011;58851;42.984;20.336;2023-04-03T10:06:32;19.95;;;13.30;;
55330;SDS011;58851;42.984;20.336;2023-04-03T10:09:04;16.48;;;9.93;;
55330;SDS011;58851;42.984;20.336;2023-04-03T10:11:39;24.13;;;13.45;;
55330;SDS011;58851;42.984;20.336;2023-04-03T10:14:22;17.95;;;13.23;;
55330;SDS011;58851;42.984;20.336;2023-04-03T10:16:53;9.38;;;6.55;;
55330;SDS011;58851;42.984;20.336;2023-04-03T10:28:12;14.98;;;9.02;;
55330;SDS011;58851;42.984;20.336;2023-04-03T10:36:20;30.48;;;16.40;;
55330;SDS011;58851;42.984;20.336;2023-04-03T10:52:56;21.00;;;10.90;;
55330;SDS011;58851;42.984;20.336;2023-04-03T10:55:51;11.52;;;8.63;;
55330;SDS011;58851;42.984;20.336;2023-04-03T10:58:53;12.07;;;7.18;;
55330;SDS011;58851;42.984;20.336;2023-04-03T11:01:21;13.35;;;9.10;;
55330;SDS011;58851;42.984;20.336;2023-04-03T11:03:56;10.43;;;8.35;;
55330;SDS011;58851;42.984;20.336;2023-04-03T11:06:25;21.73;;;18.25;;
55330;SDS011;58851;42.984;20.336;2023-04-03T11:09:01;26.25;;;13.35;;
55330;SDS011;58851;42.984;20.336;2023-04-03T11:11:35;13.60;;;12.02;;
55330;SDS011;58851;42.984;20.336;2023-04-03T11:16:44;20.50;;;13.27;;
55330;SDS011;58851;42.984;20.336;2023-04-03T11:19:20;26.98;;;19.95;;
55330;SDS011;58851;42.984;20.336;2023-04-03T11:21:56;23.73;;;14.07;;
55330;SDS011;58851;42.984;20.336;2023-04-03T11:24:27;15.25;;;10.55;;
55330;SDS011;58851;42.984;20.336;2023-04-03T11:26:57;18.77;;;11.05;;
55330;SDS011;58851;42.984;20.336;2023-04-03T11:29:27;15.73;;;11.35;;
55330;SDS011;58851;42.984;20.336;2023-04-03T11:34:52;12.85;;;9.93;;
55330;SDS011;58851;42.984;20.336;2023-04-03T11:37:38;28.45;;;16.80;;
55330;SDS011;58851;42.984;20.336;2023-04-03T11:42:52;16.05;;;11.90;;
55330;SDS011;58851;42.984;20.336;2023-04-03T11:50:57;13.43;;;11.50;;
55330;SDS011;58851;42.984;20.336;2023-04-03T11:53:28;12.02;;;10.75;;
55330;SDS011;58851;42.984;20.336;2023-04-03T11:56:02;18.02;;;10.52;;
55330;SDS011;58851;42.984;20.336;2023-04-03T12:04:11;17.67;;;13.57;;
55330;SDS011;58851;42.984;20.336;2023-04-03T12:06:47;21.05;;;18.95;;
55330;SDS011;58851;42.984;20.336;2023-04-03T12:11:49;12.38;;;9.90;;
55330;SDS011;58851;42.984;20.336;2023-04-03T12:14:16;17.67;;;13.52;;
55330;SDS011;58851;42.984;20.336;2023-04-03T12:16:43;14.73;;;9.25;;
55330;SDS011;58851;42.984;20.336;2023-04-03T12:24:28;19.98;;;14.82;;
55330;SDS011;58851;42.984;20.336;2023-04-03T12:41:31;15.35;;;10.65;;
55330;SDS011;58851;42.984;20.336;2023-04-03T12:51:20;27.98;;;19.20;;
55330;SDS011;58851;42.984;20.336;2023-04-03T12:54:27;16.70;;;12.57;;
55330;SDS011;58851;42.984;20.336;2023-04-03T12:56:51;21.42;;;16.70;;
55330;SDS011;58851;42.984;20.336;2023-04-03T12:59:33;28.75;;;18.50;;
55330;SDS011;58851;42.984;20.336;2023-04-03T13:01:59;30.27;;;19.45;;
55330;SDS011;58851;42.984;20.336;2023-04-03T13:04:30;19.60;;;13.75;;
55330;SDS011;58851;42.984;20.336;2023-04-03T13:06:57;16.33;;;12.23;;
55330;SDS011;58851;42.984;20.336;2023-04-03T13:09:30;23.73;;;17.15;;
55330;SDS011;58851;42.984;20.336;2023-04-03T13:12:10;19.17;;;13.80;;
55330;SDS011;58851;42.984;20.336;2023-04-03T13:14:38;66.68;;;36.50;;
55330;SDS011;58851;42.984;20.336;2023-04-03T13:17:06;19.10;;;13.65;;
55330;SDS011;58851;42.984;20.336;2023-04-03T13:19:38;16.53;;;12.50;;
55330;SDS011;58851;42.984;20.336;2023-04-03T13:25:08;24.08;;;17.48;;
55330;SDS011;58851;42.984;20.336;2023-04-03T13:27:38;31.75;;;19.23;;
55330;SDS011;58851;42.984;20.336;2023-04-03T13:30:17;46.25;;;30.02;;
55330;SDS011;58851;42.984;20.336;2023-04-03T13:33:03;49.78;;;32.75;;
55330;SDS011;58851;42.984;20.336;2023-04-03T13:38:42;52.30;;;27.52;;
55330;SDS011;58851;42.984;20.336;2023-04-03T13:41:23;23.58;;;13.88;;
55330;SDS011;58851;42.984;20.336;2023-04-03T13:43:51;21.38;;;14.35;;
55330;SDS011;58851;42.984;20.336;2023-04-03T13:48:44;18.85;;;13.00;;
55330;SDS011;58851;42.984;20.336;2023-04-03T13:53:43;18.00;;;12.65;;
55330;SDS011;58851;42.984;20.336;2023-04-03T13:56:30;26.08;;;20.05;;
55330;SDS011;58851;42.984;20.336;2023-04-03T13:59:03;50.20;;;37.28;;
55330;SDS011;58851;42.984;20.336;2023-04-03T14:01:50;32.42;;;23.05;;
55330;SDS011;58851;42.984;20.336;2023-04-03T14:04:25;24.58;;;18.75;;
55330;SDS011;58851;42.984;20.336;2023-04-03T14:06:53;13.63;;;11.07;;
55330;SDS011;58851;42.984;20.336;2023-04-03T14:09:21;14.40;;;9.45;;
55330;SDS011;58851;42.984;20.336;2023-04-03T14:11:50;12.43;;;11.05;;
55330;SDS011;58851;42.984;20.336;2023-04-03T14:14:29;14.38;;;10.02;;
55330;SDS011;58851;42.984;20.336;2023-04-03T14:16:58;25.40;;;14.55;;
55330;SDS011;58851;42.984;20.336;2023-04-03T14:19:27;22.40;;;15.05;;
55330;SDS011;58851;42.984;20.336;2023-04-03T14:24:28;20.05;;;12.68;;
55330;SDS011;58851;42.984;20.336;2023-04-03T14:26:54;17.58;;;12.98;;
55330;SDS011;58851;42.984;20.336;2023-04-03T14:29:21;22.33;;;15.50;;
55330;SDS011;58851;42.984;20.336;2023-04-03T14:31:48;13.23;;;9.43;;
55330;SDS011;58851;42.984;20.336;2023-04-03T14:34:14;27.77;;;17.40;;
55330;SDS011;58851;42.984;20.336;2023-04-03T14:36:41;14.45;;;11.70;;
55330;SDS011;58851;42.984;20.336;2023-04-03T14:39:27;13.20;;;9.40;;
55330;SDS011;58851;42.984;20.336;2023-04-03T14:41:53;21.77;;;13.93;;
55330;SDS011;58851;42.984;20.336;2023-04-03T14:44:19;16.10;;;10.27;;
55330;SDS011;58851;42.984;20.336;2023-04-03T14:46:44;22.90;;;11.55;;
55330;SDS011;58851;42.984;20.336;2023-04-03T14:49:14;13.02;;;9.77;;
55330;SDS011;58851;42.984;20.336;2023-04-03T14:51:43;12.90;;;10.10;;
55330;SDS011;58851;42.984;20.336;2023-04-03T14:54:13;22.48;;;16.13;;
55330;SDS011;58851;42.984;20.336;2023-04-03T14:56:41;12.35;;;10.95;;
55330;SDS011;58851;42.984;20.336;2023-04-03T14:59:09;10.95;;;9.23;;
55330;SDS011;58851;42.984;20.336;2023-04-03T15:01:37;14.27;;;11.02;;
55330;SDS011;58851;42.984;20.336;2023-04-03T15:04:13;17.80;;;15.25;;
55330;SDS011;58851;42.984;20.336;2023-04-03T15:06:40;30.13;;;23.08;;
55330;SDS011;58851;42.984;20.336;2023-04-03T15:09:26;17.35;;;12.02;;
55330;SDS011;58851;42.984;20.336;2023-04-03T15:11:54;21.02;;;15.13;;
55330;SDS011;58851;42.984;20.336;2023-04-03T15:14:20;28.27;;;19.20;;
55330;SDS011;58851;42.984;20.336;2023-04-03T15:16:46;28.88;;;19.90;;
55330;SDS011;58851;42.984;20.336;2023-04-03T15:19:12;14.80;;;11.90;;
55330;SDS011;58851;42.984;20.336;2023-04-03T15:21:38;12.77;;;9.30;;
55330;SDS011;58851;42.984;20.336;2023-04-03T15:24:04;15.88;;;12.32;;
55330;SDS011;58851;42.984;20.336;2023-04-03T15:26:30;15.65;;;10.80;;
55330;SDS011;58851;42.984;20.336;2023-04-03T15:28:56;25.35;;;15.10;;
55330;SDS011;58851;42.984;20.336;2023-04-03T15:31:22;10.63;;;8.02;;
55330;SDS011;58851;42.984;20.336;2023-04-03T15:33:48;26.75;;;21.77;;
55330;SDS011;58851;42.984;20.336;2023-04-03T15:36:13;34.30;;;21.30;;
55330;SDS011;58851;42.984;20.336;2023-04-03T15:38:39;55.60;;;32.55;;
55330;SDS011;58851;42.984;20.336;2023-04-03T15:41:05;17.60;;;12.25;;
55330;SDS011;58851;42.984;20.336;2023-04-03T15:43:31;18.70;;;11.98;;
55330;SDS011;58851;42.984;20.336;2023-04-03T15:45:58;18.55;;;12.90;;
55330;SDS011;58851;42.984;20.336;2023-04-03T15:48:25;31.08;;;21.77;;
55330;SDS011;58851;42.984;20.336;2023-04-03T15:50:52;13.57;;;9.13;;
55330;SDS011;58851;42.984;20.336;2023-04-03T15:53:19;13.63;;;10.98;;
55330;SDS011;58851;42.984;20.336;2023-04-03T15:55:45;28.00;;;21.63;;
55330;SDS011;58851;42.984;20.336;2023-04-03T15:58:10;18.20;;;14.70;;
55330;SDS011;58851;42.984;20.336;2023-04-03T16:00:36;14.75;;;11.45;;
55330;SDS011;58851;42.984;20.336;2023-04-03T16:03:08;69.88;;;41.85;;
55330;SDS011;58851;42.984;20.336;2023-04-03T16:05:37;15.10;;;11.48;;
55330;SDS011;58851;42.984;20.336;2023-04-03T16:08:04;17.40;;;11.65;;
55330;SDS011;58851;42.984;20.336;2023-04-03T16:10:32;17.80;;;13.15;;
55330;SDS011;58851;42.984;20.336;2023-04-03T16:13:00;22.48;;;17.42;;
55330;SDS011;58851;42.984;20.336;2023-04-03T16:15:25;26.90;;;17.65;;
55330;SDS011;58851;42.984;20.336;2023-04-03T16:17:52;20.83;;;15.15;;
55330;SDS011;58851;42.984;20.336;2023-04-03T16:20:19;18.52;;;13.10;;
55330;SDS011;58851;42.984;20.336;2023-04-03T16:22:45;14.60;;;10.68;;